Time;durP1;ratioP1;P1;durP2;ratioP2;P2;SDS_P1;SDS_P2;PMS_P1;PMS_P2;Temp;Humidity;BMP_temperature;BMP_pressure;BME280_temperature;BME280_humidity;BME280_pressure;Samples;Min_cycle;Max_cycle;Signal;HPM_P1;HPM_P2
2021/10/08 00:04:53;180689.00;0.60;312.68;0.00;0.00;0.62;;;;;17.00;1.00;;;;;;2274128;61;1916;-85
2021/10/08 01:40:59;10687.00;0.04;19.14;0.00;0.00;0.62;;;;;17.90;1.00;;;;;;2515402;39;3464;31
2021/10/08 03:56:34;118088544.00;393.63;66705044.00;0.00;0.00;0.62;;;;;12.60;1.00;;;;;;2282864;61;903;-86
2021/10/08 04:18:48;151339.00;0.50;262.12;0.00;0.00;0.62;;;;;12.80;1.00;;;;;;2473363;40;3537;31
2021/10/08 04:23:42;120047.00;0.40;208.16;0.00;0.00;0.62;;;;;13.10;1.00;;;;;;2473767;55;3685;31
2021/10/08 05:47:53;131793.00;0.44;228.42;0.00;0.00;0.62;;;;;16.30;1.00;;;;;;2470042;40;3564;31
2021/10/08 06:02:43;230912.00;0.77;399.12;0.00;0.00;0.62;;;;;15.40;1.00;;;;;;2282347;61;918;-88
2021/10/08 06:12:35;229922.00;0.77;397.41;0.00;0.00;0.62;;;;;16.10;1.00;;;;;;2282102;61;918;-87
2021/10/08 06:17:31;207796.00;0.69;359.34;0.00;0.00;0.62;;;;;15.10;1.00;;;;;;2282159;61;1282;-88
2021/10/08 06:27:41;313951.00;1.05;541.90;89112.00;0.30;154.77;;;;;12.80;4.30;;;;;;2282497;61;883;-88
2021/10/08 06:32:39;492885.00;1.64;849.58;88978.00;0.30;154.54;;;;;13.10;1.80;;;;;;2511056;40;3433;31
2021/10/08 06:40:03;583234.00;1.94;1005.28;71439.00;0.24;124.25;;;;;12.60;2.10;;;;;;2281676;61;1263;-83
2021/10/08 06:42:31;670610.00;2.24;1156.31;87029.00;0.29;151.18;;;;;12.40;3.80;;;;;;2277036;61;480;-90
2021/10/08 06:44:59;695450.00;2.32;1199.35;105602.00;0.35;183.24;;;;;13.00;3.90;;;;;;2268376;61;1925;-90
2021/10/08 06:50:13;165824.00;0.55;287.07;0.00;0.00;0.62;;;;;14.40;1.00;;;;;;2511765;40;3542;31
2021/10/08 07:19:48;338862.00;1.13;584.72;0.00;0.00;0.62;;;;;13.30;1.60;;;;;;2277856;61;1307;-84
2021/10/08 07:22:15;266098.00;0.89;459.63;0.00;0.00;0.62;;;;;13.70;1.50;;;;;;2276223;61;905;-90
2021/10/08 07:34:33;269131.00;0.90;464.85;0.00;0.00;0.62;;;;;13.80;1.00;;;;;;2277814;61;975;-87
2021/10/08 07:41:57;530103.00;1.77;913.67;94080.00;0.31;163.35;;;;;14.50;1.00;;;;;;2514318;40;3740;31
2021/10/08 08:06:40;433323.00;1.44;747.10;0.00;0.00;0.62;;;;;13.20;1.80;;;;;;2476158;39;3774;31
2021/10/08 08:16:32;239263.00;0.80;413.48;0.00;0.00;0.62;;;;;13.70;1.60;;;;;;2389008;40;3741;31
2021/10/08 08:23:54;277432.00;0.92;479.12;0.00;0.00;0.62;;;;;13.60;1.50;;;;;;2274566;61;1391;-84
2021/10/08 08:31:17;347029.00;1.16;598.75;0.00;0.00;0.62;;;;;13.30;3.20;;;;;;2274918;61;1352;-85
2021/10/08 08:36:13;319499.00;1.06;551.44;0.00;0.00;0.62;;;;;13.70;2.00;;;;;;2278077;61;1409;-83
2021/10/08 08:38:40;249477.00;0.83;431.05;0.00;0.00;0.62;;;;;13.60;2.00;;;;;;2272346;61;1049;-84
2021/10/08 08:43:34;443169.00;1.48;764.03;0.00;0.00;0.62;;;;;13.10;3.80;;;;;;2270704;61;1392;-82
2021/10/08 08:46:01;464618.00;1.55;800.93;0.00;0.00;0.62;;;;;13.00;4.50;;;;;;2377660;40;4087;31
2021/10/08 08:48:28;597327.00;1.99;1029.60;13289.00;0.04;23.65;;;;;13.40;4.40;;;;;;2345900;40;3806;31
2021/10/08 08:50:55;849418.00;2.83;1467.45;19726.00;0.07;34.80;;;;;13.40;3.30;;;;;;2262545;61;1351;-83
2021/10/08 08:55:52;1024192.00;3.41;1775.37;81307.00;0.27;141.29;;;;;14.00;1.90;;;;;;2274527;61;1383;-82
2021/10/08 08:58:19;606164.00;2.02;1044.86;20697.00;0.07;36.48;;;;;13.80;3.30;;;;;;2272269;61;991;-81
2021/10/08 09:03:16;1043891.00;3.48;1810.37;94478.00;0.31;164.04;;;;;14.60;2.10;;;;;;2278809;61;1455;-81
2021/10/08 09:05:48;934479.00;3.11;1616.76;85677.00;0.29;148.84;;;;;14.50;1.20;;;;;;2276400;61;930;-82
2021/10/08 09:08:15;602671.00;2.01;1038.83;13645.00;0.05;24.26;;;;;14.40;1.60;;;;;;2266032;61;2010;-79
2021/10/08 09:10:45;832327.00;2.77;1437.56;26633.00;0.09;46.75;;;;;14.90;1.00;;;;;;2276121;61;1349;-82
2021/10/08 09:13:14;1095500.00;3.65;1902.38;132440.00;0.44;229.54;;;;;15.20;1.00;;;;;;2269423;61;976;-83
2021/10/08 09:15:47;920226.00;3.07;1591.67;90385.00;0.30;156.97;;;;;15.30;1.00;;;;;;2275391;61;921;-83
2021/10/08 09:18:17;739977.00;2.47;1276.63;33635.00;0.11;58.87;;;;;15.40;1.00;;;;;;2276070;61;1029;-83
2021/10/08 09:23:11;1198867.00;4.00;2088.17;143313.00;0.48;248.28;;;;;14.80;1.10;;;;;;2266529;61;1384;-79
2021/10/08 09:25:39;917367.00;3.06;1586.64;62682.00;0.21;109.11;;;;;14.70;2.20;;;;;;2261104;61;950;-82
2021/10/08 09:30:42;771114.00;2.57;1330.79;48361.00;0.16;84.35;;;;;15.10;1.00;;;;;;2266392;61;1380;-83
2021/10/08 09:33:11;766849.00;2.56;1323.37;160542.00;0.54;277.97;;;;;15.10;1.10;;;;;;2264580;61;1003;-80
2021/10/08 09:35:39;678334.00;2.26;1169.69;22712.00;0.08;39.97;;;;;15.40;1.00;;;;;;2260367;61;950;-81
2021/10/08 09:38:10;1229564.00;4.10;2143.76;115126.00;0.38;199.67;;;;;15.40;1.00;;;;;;2250913;61;1013;-82
2021/10/08 09:40:44;697321.00;2.32;1202.59;14069.00;0.05;25.00;;;;;15.50;1.00;;;;;;2253832;61;1405;-82
2021/10/08 09:43:14;837327.00;2.79;1446.30;80729.00;0.27;140.30;;;;;15.70;1.00;;;;;;2260166;61;1002;-80
2021/10/08 09:45:51;782019.00;2.61;1349.78;24236.00;0.08;42.60;;;;;15.70;1.00;;;;;;2250848;61;929;-82
2021/10/08 09:48:19;1069080.00;3.56;1855.22;131051.00;0.44;227.14;;;;;15.80;1.00;;;;;;2260456;61;1924;-80
2021/10/08 09:51:04;1106584.00;3.69;1922.20;42015.00;0.14;73.37;;;;;15.70;1.00;;;;;;2260310;61;1282;-83
2021/10/08 09:53:33;1001133.00;3.34;1734.48;35027.00;0.12;61.28;;;;;15.90;1.00;;;;;;2262117;61;1013;-83
2021/10/08 09:56:00;872425.00;2.91;1507.74;95428.00;0.32;165.68;;;;;15.40;1.00;;;;;;2264420;61;1013;-82
2021/10/08 10:01:04;805733.00;2.69;1391.12;143777.00;0.48;249.08;;;;;15.80;1.00;;;;;;2274434;61;1294;-82
2021/10/08 10:03:32;783218.00;2.61;1351.87;99768.00;0.33;173.17;;;;;16.00;1.00;;;;;;2268982;61;973;-82
2021/10/08 10:06:01;678078.00;2.26;1169.24;122020.00;0.41;211.57;;;;;15.80;1.00;;;;;;2272580;61;977;-81
2021/10/08 10:08:28;366544.00;1.22;632.30;0.00;0.00;0.62;;;;;15.70;1.00;;;;;;2272195;61;1919;-82
2021/10/08 10:10:56;766145.00;2.55;1322.14;109489.00;0.36;189.95;;;;;16.00;1.00;;;;;;2268879;61;1455;-82
2021/10/08 10:13:23;676817.00;2.26;1167.06;136515.00;0.46;236.56;;;;;16.00;1.00;;;;;;2268913;61;936;-82
2021/10/08 10:15:51;783652.00;2.61;1352.63;149512.00;0.50;258.97;;;;;16.00;1.00;;;;;;2272212;61;1012;-80
2021/10/08 10:18:21;422320.00;1.41;728.18;79153.00;0.26;137.57;;;;;16.40;1.00;;;;;;2271725;61;1252;-81
2021/10/08 10:20:51;278822.00;0.93;481.51;0.00;0.00;0.62;;;;;16.30;1.00;;;;;;2264063;61;1333;-82
2021/10/08 10:25:47;317017.00;1.06;547.17;0.00;0.00;0.62;;;;;17.20;1.00;;;;;;2262368;61;1400;-81
2021/10/08 10:33:13;257976.00;0.86;445.67;0.00;0.00;0.62;;;;;17.30;1.00;;;;;;2266785;61;1403;-82
2021/10/08 10:35:47;390842.00;1.30;674.06;0.00;0.00;0.62;;;;;16.80;1.00;;;;;;2264816;61;1033;-81
2021/10/08 10:38:25;404204.00;1.35;697.03;0.00;0.00;0.62;;;;;16.70;1.00;;;;;;2260799;61;958;-83
2021/10/08 10:41:23;247192.00;0.82;427.12;0.00;0.00;0.62;;;;;17.10;1.00;;;;;;2263431;61;1457;-83
2021/10/08 10:46:27;382696.00;1.28;660.06;0.00;0.00;0.62;;;;;17.60;1.00;;;;;;2270394;61;1390;-83
2021/10/08 10:52:21;176792.00;0.59;305.96;0.00;0.00;0.62;;;;;17.10;1.00;;;;;;2256008;61;1049;-82
2021/10/08 10:58:08;532819.00;1.78;918.35;0.00;0.00;0.62;;;;;16.90;1.00;;;;;;2277910;61;1426;-82
2021/10/08 11:03:06;407734.00;1.36;703.10;0.00;0.00;0.62;;;;;16.60;1.00;;;;;;2262278;61;1424;-81
2021/10/08 11:08:16;400089.00;1.33;689.96;73135.00;0.24;127.18;;;;;16.80;1.00;;;;;;2266543;61;1419;-80
2021/10/08 11:10:47;853068.00;2.84;1473.84;253255.00;0.84;437.55;;;;;16.90;1.00;;;;;;2264601;61;2002;-82
2021/10/08 11:13:27;259674.00;0.87;448.59;57390.00;0.19;99.96;;;;;17.20;1.00;;;;;;2259952;61;998;-83
2021/10/08 11:15:56;90546.00;0.30;157.25;0.00;0.00;0.62;;;;;17.20;1.00;;;;;;2250443;61;909;-82
2021/10/08 11:20:51;145760.00;0.49;252.50;0.00;0.00;0.62;;;;;17.30;1.00;;;;;;2266484;61;1384;-86
2021/10/08 11:25:51;58965.00;0.20;102.69;0.00;0.00;0.62;;;;;17.10;1.00;;;;;;2269672;61;1399;-82
2021/10/08 11:28:25;183625.00;0.61;317.73;0.00;0.00;0.62;;;;;16.70;1.00;;;;;;2259884;61;966;-78
2021/10/08 11:30:52;43172.00;0.14;75.38;0.00;0.00;0.62;;;;;16.60;1.00;;;;;;2259715;61;2032;-82
2021/10/08 11:35:47;63513.00;0.21;110.55;0.00;0.00;0.62;;;;;16.80;1.00;;;;;;2270506;61;1423;-80
2021/10/08 11:40:45;115046.00;0.38;199.54;0.00;0.00;0.62;;;;;16.50;1.00;;;;;;2266700;61;1411;-81
2021/10/08 11:43:24;184872.00;0.62;319.88;0.00;0.00;0.62;;;;;16.70;1.00;;;;;;2256573;61;980;-82
2021/10/08 11:45:53;19596.00;0.07;34.57;0.00;0.00;0.62;;;;;17.00;1.00;;;;;;2256726;61;1009;-82
2021/10/08 11:51:01;141610.00;0.47;245.35;0.00;0.00;0.62;;;;;16.70;1.00;;;;;;2274972;61;1924;-83
2021/10/08 11:53:41;113956.00;0.38;197.66;0.00;0.00;0.62;;;;;16.80;1.00;;;;;;2272950;61;1265;-81
2021/10/08 11:56:24;48139.00;0.16;83.97;0.00;0.00;0.62;;;;;17.10;1.00;;;;;;2273061;61;1078;-82
2021/10/08 11:58:53;99959.00;0.33;173.50;0.00;0.00;0.62;;;;;17.00;1.00;;;;;;2269572;61;926;-81
2021/10/08 12:01:22;78130.00;0.26;135.81;0.00;0.00;0.62;;;;;17.50;1.00;;;;;;2271748;61;1337;-85
2021/10/08 12:03:51;86738.00;0.29;150.67;0.00;0.00;0.62;;;;;17.60;1.00;;;;;;2266225;61;941;-81
2021/10/08 12:06:24;110240.00;0.37;191.24;0.00;0.00;0.62;;;;;17.60;1.00;;;;;;2272589;61;973;-80
2021/10/08 12:11:20;185069.00;0.62;320.22;0.00;0.00;0.62;;;;;17.20;1.00;;;;;;2270447;61;1379;-81
2021/10/08 12:13:50;42889.00;0.14;74.89;0.00;0.00;0.62;;;;;17.20;1.00;;;;;;2269058;61;977;-82
2021/10/08 12:16:22;36635.00;0.12;64.07;0.00;0.00;0.62;;;;;16.70;1.00;;;;;;2265249;61;1578;-80
2021/10/08 12:18:52;173165.00;0.58;299.72;0.00;0.00;0.62;;;;;16.40;1.00;;;;;;2269146;61;1123;-81
2021/10/08 12:23:55;177942.00;0.59;307.95;0.00;0.00;0.62;;;;;16.20;1.00;;;;;;2266294;61;1365;-81
2021/10/08 12:26:23;105207.00;0.35;182.56;0.00;0.00;0.62;;;;;16.40;1.00;;;;;;2264775;61;1013;-81
2021/10/08 12:33:49;34089.00;0.11;59.66;0.00;0.00;0.62;;;;;16.50;1.00;;;;;;2274984;61;1695;-80
2021/10/08 12:36:25;53747.00;0.18;93.67;0.00;0.00;0.62;;;;;16.20;1.00;;;;;;2272879;61;1261;-80
2021/10/08 12:39:04;167587.00;0.56;290.11;0.00;0.00;0.62;;;;;16.30;1.00;;;;;;2272875;61;1140;-81
2021/10/08 12:41:36;210282.00;0.70;363.62;33733.00;0.11;59.04;;;;;16.60;1.00;;;;;;2265496;61;1628;-79
2021/10/08 12:44:17;195595.00;0.65;338.34;0.00;0.00;0.62;;;;;16.30;1.00;;;;;;2272974;61;1224;-82
2021/10/08 12:46:56;51731.00;0.17;90.18;0.00;0.00;0.62;;;;;16.30;1.00;;;;;;2273115;61;1078;-79
2021/10/08 12:54:23;170849.00;0.57;295.73;0.00;0.00;0.62;;;;;16.80;1.00;;;;;;2270423;61;1387;-80
2021/10/08 12:57:10;157666.00;0.53;273.02;0.00;0.00;0.62;;;;;16.40;1.00;;;;;;2268635;61;1603;-78
2021/10/08 13:04:33;150512.00;0.50;260.69;0.00;0.00;0.62;;;;;16.60;1.00;;;;;;2270513;61;1354;-81
2021/10/08 13:07:18;119537.00;0.40;207.28;0.00;0.00;0.62;;;;;16.60;1.00;;;;;;2268784;61;1595;-80
2021/10/08 13:10:10;10748.00;0.04;19.25;0.00;0.00;0.62;;;;;16.90;1.00;;;;;;2264100;61;2007;-81
2021/10/08 13:12:52;92128.00;0.31;159.98;0.00;0.00;0.62;;;;;17.20;1.00;;;;;;2252451;61;1059;-80
2021/10/08 13:15:22;116740.00;0.39;202.46;0.00;0.00;0.62;;;;;17.30;1.00;;;;;;2249371;61;960;-80
2021/10/08 13:18:10;507548.00;1.69;874.82;138146.00;0.46;239.37;;;;;17.50;1.00;;;;;;2240710;61;990;-79
2021/10/08 13:20:41;292995.00;0.98;505.88;71880.00;0.24;125.01;;;;;17.30;1.00;;;;;;2237210;61;1328;-81
2021/10/08 13:23:08;306445.00;1.02;529.00;29369.00;0.10;51.49;;;;;17.60;1.00;;;;;;2235637;61;980;-81
2021/10/08 13:25:39;270423.00;0.90;467.07;0.00;0.00;0.62;;;;;17.40;1.00;;;;;;2236074;62;969;-81
2021/10/08 13:28:06;115033.00;0.38;199.51;0.00;0.00;0.62;;;;;17.10;1.00;;;;;;2238788;61;1001;-81
2021/10/08 13:30:34;142408.00;0.47;246.72;0.00;0.00;0.62;;;;;17.00;1.00;;;;;;2239460;61;1948;-80
2021/10/08 13:33:01;125701.00;0.42;217.92;0.00;0.00;0.62;;;;;16.60;1.00;;;;;;2228339;62;960;-79
2021/10/08 13:35:30;174561.00;0.58;302.12;0.00;0.00;0.62;;;;;17.00;1.00;;;;;;2231110;62;1045;-81
2021/10/08 13:37:57;52396.00;0.17;91.33;0.00;0.00;0.62;;;;;17.40;1.00;;;;;;2232207;62;1080;-80
2021/10/08 13:40:26;33593.00;0.11;58.80;0.00;0.00;0.62;;;;;17.60;1.00;;;;;;2232402;62;1403;-85
2021/10/08 13:42:54;119972.00;0.40;208.03;0.00;0.00;0.62;;;;;17.40;1.00;;;;;;2232497;62;1007;-81
2021/10/08 13:45:22;148094.00;0.49;256.52;0.00;0.00;0.62;;;;;16.80;1.00;;;;;;2232427;62;1254;-80
2021/10/08 13:47:49;274580.00;0.92;474.22;0.00;0.00;0.62;;;;;16.60;1.00;;;;;;2226091;62;980;-80
2021/10/08 13:52:44;135876.00;0.45;235.46;0.00;0.00;0.62;;;;;16.20;1.00;;;;;;2270652;61;1312;-82
2021/10/08 13:57:39;61238.00;0.20;106.62;0.00;0.00;0.62;;;;;16.70;1.00;;;;;;2270583;61;1383;-78
2021/10/08 14:00:08;160416.00;0.53;277.76;35081.00;0.12;61.38;;;;;16.60;1.00;;;;;;2268617;61;1605;-80
2021/10/08 14:02:39;102480.00;0.34;177.85;0.00;0.00;0.62;;;;;16.80;1.00;;;;;;2268731;61;909;-81
2021/10/08 14:10:21;457709.00;1.53;789.04;89784.00;0.30;155.93;;;;;16.50;1.00;;;;;;2267993;61;1980;-80
2021/10/08 14:20:15;126623.00;0.42;219.51;0.00;0.00;0.62;;;;;16.90;1.00;;;;;;2270398;61;1316;-82
2021/10/08 14:25:12;63687.00;0.21;110.85;0.00;0.00;0.62;;;;;17.30;1.00;;;;;;2270249;61;1427;-80
2021/10/08 14:27:40;102697.00;0.34;178.23;0.00;0.00;0.62;;;;;17.00;1.00;;;;;;2268395;61;1246;-80
2021/10/08 14:30:11;110233.00;0.37;191.23;0.00;0.00;0.62;;;;;17.10;1.00;;;;;;2268558;61;1942;-81
2021/10/08 14:32:38;176830.00;0.59;306.03;0.00;0.00;0.62;;;;;17.30;1.00;;;;;;2267945;61;956;-82
2021/10/08 14:35:07;147182.00;0.49;254.95;0.00;0.00;0.62;;;;;17.40;1.00;;;;;;2268385;61;1248;-81
2021/10/08 14:37:37;162679.00;0.54;281.65;0.00;0.00;0.62;;;;;17.50;1.00;;;;;;2267740;61;965;-80
2021/10/08 14:40:06;419425.00;1.40;723.20;72690.00;0.24;126.41;;;;;17.30;1.00;;;;;;2261318;61;1342;-79
2021/10/08 14:42:33;162254.00;0.54;280.92;0.00;0.00;0.62;;;;;17.00;1.00;;;;;;2259884;61;1018;-82
2021/10/08 14:45:01;110974.00;0.37;192.51;0.00;0.00;0.62;;;;;16.90;1.00;;;;;;2250306;61;978;-81
2021/10/08 14:47:28;246999.00;0.82;426.79;0.00;0.00;0.62;;;;;16.80;1.00;;;;;;2259288;61;1179;-80
2021/10/08 14:49:54;129318.00;0.43;224.15;0.00;0.00;0.62;;;;;16.40;1.00;;;;;;2259989;61;1928;-80
2021/10/08 14:52:23;381951.00;1.27;658.78;101999.00;0.34;177.02;;;;;16.30;1.00;;;;;;2256663;61;962;-82
2021/10/08 14:57:40;154071.00;0.51;266.82;0.00;0.00;0.62;;;;;16.30;1.00;;;;;;2270099;61;1398;-80
2021/10/08 15:00:08;112912.00;0.38;195.85;0.00;0.00;0.62;;;;;16.70;1.00;;;;;;2264684;61;1473;-82
2021/10/08 15:02:35;29639.00;0.10;51.96;0.00;0.00;0.62;;;;;17.50;1.00;;;;;;2263765;61;950;-80
2021/10/08 15:05:05;475955.00;1.59;820.44;59694.00;0.20;103.95;;;;;17.40;1.00;;;;;;2256200;61;957;-80
2021/10/08 15:07:32;293204.00;0.98;506.24;0.00;0.00;0.62;;;;;17.10;1.00;;;;;;2246550;61;1002;-80
2021/10/08 15:09:59;104908.00;0.35;182.04;0.00;0.00;0.62;;;;;16.80;1.00;;;;;;2249751;61;1987;-81
2021/10/08 15:12:27;194273.00;0.65;336.07;54296.00;0.18;94.62;;;;;16.90;1.00;;;;;;2250402;61;960;-81
2021/10/08 15:14:54;99043.00;0.33;171.92;0.00;0.00;0.62;;;;;16.90;1.00;;;;;;2250463;61;998;-81
2021/10/08 15:17:21;54187.00;0.18;94.43;0.00;0.00;0.62;;;;;16.90;1.00;;;;;;2456891;40;4254;31
2021/10/08 15:19:48;296630.00;0.99;512.13;0.00;0.00;0.62;;;;;16.90;1.00;;;;;;2267652;61;1415;-80
2021/10/08 15:22:15;192647.00;0.64;333.27;7765.00;0.03;14.08;;;;;16.80;1.00;;;;;;2273173;61;1308;-81
2021/10/08 15:24:42;55838.00;0.19;97.28;0.00;0.00;0.62;;;;;16.70;1.00;;;;;;2267512;61;1032;-81
2021/10/08 15:27:09;243394.00;0.81;420.59;0.00;0.00;0.62;;;;;16.70;1.00;;;;;;2265233;61;984;-81
2021/10/08 15:32:06;134056.00;0.45;232.32;0.00;0.00;0.62;;;;;16.90;1.00;;;;;;2267225;61;1961;-80
2021/10/08 15:39:29;143878.00;0.48;249.26;0.00;0.00;0.62;;;;;16.90;1.00;;;;;;2274827;61;1379;-81
2021/10/08 15:44:23;241884.00;0.81;417.99;8199.00;0.03;14.83;;;;;17.30;1.00;;;;;;2274969;61;1362;-82
2021/10/08 15:46:50;115814.00;0.39;200.86;0.00;0.00;0.62;;;;;17.20;1.00;;;;;;2273220;61;975;-80
2021/10/08 15:49:19;185076.00;0.62;320.23;49501.00;0.17;86.32;;;;;17.20;1.00;;;;;;2266194;61;1002;-82
2021/10/08 15:51:46;189483.00;0.63;327.82;0.00;0.00;0.62;;;;;17.20;1.00;;;;;;2265315;61;1940;-82
2021/10/08 15:54:12;187494.00;0.62;324.39;0.00;0.00;0.62;;;;;17.10;1.00;;;;;;2268221;61;1008;-81
2021/10/08 15:56:40;103867.00;0.35;180.25;0.00;0.00;0.62;;;;;17.00;1.00;;;;;;2269180;61;1234;-83
2021/10/08 15:59:07;19947.00;0.07;35.18;0.00;0.00;0.62;;;;;17.20;1.00;;;;;;2265384;61;1079;-82
2021/10/08 16:04:02;165571.00;0.55;286.64;0.00;0.00;0.62;;;;;17.20;1.00;;;;;;2274867;61;1406;-81
2021/10/08 16:06:31;200912.00;0.67;347.49;29121.00;0.10;51.06;;;;;17.20;1.00;;;;;;2264424;61;950;-82
2021/10/08 16:08:57;62059.00;0.21;108.04;0.00;0.00;0.62;;;;;17.40;1.00;;;;;;2258187;61;929;-82
2021/10/08 16:16:24;102242.00;0.34;177.44;0.00;0.00;0.62;;;;;16.90;1.00;;;;;;2270678;61;1396;-82
2021/10/08 16:18:54;32876.00;0.11;57.56;0.00;0.00;0.62;;;;;17.00;1.00;;;;;;2265476;61;950;-79
2021/10/08 16:23:51;90366.00;0.30;156.94;0.00;0.00;0.62;;;;;17.40;1.00;;;;;;2271061;61;1399;-82
2021/10/08 16:26:18;254765.00;0.85;440.15;0.00;0.00;0.62;;;;;17.10;1.00;;;;;;2269054;61;1032;-80
2021/10/08 16:31:13;146001.00;0.49;252.92;0.00;0.00;0.62;;;;;17.10;1.00;;;;;;2270338;61;1911;-81
2021/10/08 16:33:41;315166.00;1.05;543.99;74359.00;0.25;129.29;;;;;16.90;1.00;;;;;;2269110;61;926;-82
2021/10/08 16:36:10;69485.00;0.23;120.87;0.00;0.00;0.62;;;;;16.80;1.00;;;;;;2268524;61;955;-80
2021/10/08 16:38:38;85807.00;0.29;149.07;0.00;0.00;0.62;;;;;17.00;1.00;;;;;;2268902;61;966;-81
2021/10/08 16:41:07;58120.00;0.19;101.23;0.00;0.00;0.62;;;;;17.00;1.00;;;;;;2268423;61;1460;-82
2021/10/08 16:43:34;77228.00;0.26;134.25;0.00;0.00;0.62;;;;;16.90;1.00;;;;;;2267871;61;998;-80
2021/10/08 16:46:01;80144.00;0.27;139.29;0.00;0.00;0.62;;;;;17.00;1.00;;;;;;2261868;61;977;-81
2021/10/08 16:48:28;105706.00;0.35;183.42;0.00;0.00;0.62;;;;;16.90;1.00;;;;;;2260386;61;949;-82
2021/10/08 16:58:36;338652.00;1.13;584.36;87580.00;0.29;152.13;;;;;17.20;1.00;;;;;;2274338;61;1327;-81
2021/10/08 17:01:03;324357.00;1.08;559.79;87871.00;0.29;152.63;;;;;17.00;1.00;;;;;;2272913;61;1447;-84
2021/10/08 17:03:30;350741.00;1.17;605.13;73324.00;0.24;127.50;;;;;16.90;1.00;;;;;;2273002;61;1003;-84
2021/10/08 17:05:59;254230.00;0.85;439.23;93766.00;0.31;162.81;;;;;17.10;1.00;;;;;;2265951;61;997;-83
2021/10/08 17:08:26;407826.00;1.36;703.26;101666.00;0.34;176.45;;;;;16.70;1.00;;;;;;2272347;61;955;-80
2021/10/08 17:10:53;296227.00;0.99;511.43;77830.00;0.26;135.29;;;;;16.50;1.00;;;;;;2267813;61;2006;-80
2021/10/08 17:15:49;364375.00;1.21;628.57;83418.00;0.28;144.94;;;;;16.40;1.00;;;;;;2274200;61;1391;-80
2021/10/08 17:18:16;118639472.00;395.46;67643872.00;83831.00;0.28;145.65;;;;;16.50;1.00;;;;;;2268840;61;955;-82
2021/10/08 17:20:46;298998.00;1.00;516.20;84284.00;0.28;146.44;;;;;16.50;1.00;;;;;;2272691;61;1269;-82
2021/10/08 17:23:13;326634.00;1.09;563.70;76474.00;0.25;132.95;;;;;16.40;1.00;;;;;;2272700;61;1016;-81
2021/10/08 17:25:49;710387.00;2.37;1225.26;110407.00;0.37;191.53;;;;;16.40;1.00;;;;;;2265665;61;1027;-81
2021/10/08 17:28:27;540241.00;1.80;931.14;77472.00;0.26;134.67;;;;;16.70;1.00;;;;;;2272733;61;980;-80
2021/10/08 17:33:49;458141.00;1.53;789.79;0.00;0.00;0.62;;;;;16.90;1.00;;;;;;2255816;61;914;-81
2021/10/08 17:36:19;382138.00;1.27;659.10;67935.00;0.23;118.19;;;;;16.90;1.00;;;;;;2248088;61;1022;-82
2021/10/08 17:38:46;439898.00;1.47;758.41;122811.00;0.41;212.93;;;;;16.80;1.00;;;;;;2245263;61;932;-81
2021/10/08 17:43:41;358452.00;1.19;618.39;87470.00;0.29;151.94;;;;;17.00;1.00;;;;;;2282371;60;1404;-82
2021/10/08 17:46:09;345664.00;1.15;596.41;112585.00;0.38;195.29;;;;;17.00;1.00;;;;;;2270317;60;953;-85
2021/10/08 17:48:39;237059.00;0.79;409.69;74208.00;0.25;129.03;;;;;16.80;1.00;;;;;;2273613;60;1016;-83
2021/10/08 17:53:34;370876.00;1.24;639.74;83670.00;0.28;145.38;;;;;16.70;1.00;;;;;;2274390;61;1444;-81
2021/10/08 17:56:05;195506.00;0.65;338.19;92704.00;0.31;160.98;;;;;16.70;1.00;;;;;;2261913;61;1023;-81
2021/10/08 17:58:33;528277.00;1.76;910.52;90423.00;0.30;157.04;;;;;16.70;1.00;;;;;;2262268;61;1006;-78
2021/10/08 18:01:05;310900.00;1.04;536.66;79196.00;0.26;137.65;;;;;16.70;1.00;;;;;;2264299;61;1454;-83
2021/10/08 18:03:35;470871.00;1.57;811.69;87495.00;0.29;151.98;;;;;16.60;1.00;;;;;;2276502;61;910;-81
2021/10/08 18:06:03;302527.00;1.01;522.26;90206.00;0.30;156.66;;;;;16.60;1.00;;;;;;2276294;61;997;-82
2021/10/08 18:08:30;268169.00;0.89;463.20;83302.00;0.28;144.74;;;;;17.00;1.00;;;;;;2266069;61;996;-82
2021/10/08 18:10:57;377790.00;1.26;651.63;75291.00;0.25;130.90;;;;;17.40;1.00;;;;;;2265990;61;1997;-81
2021/10/08 18:13:25;214870.00;0.72;371.52;90904.00;0.30;157.87;;;;;17.70;1.00;;;;;;2268391;61;990;-82
2021/10/08 18:15:54;285790.00;0.95;493.49;86425.00;0.29;150.13;;;;;17.90;1.00;;;;;;2266129;61;969;-81
2021/10/08 18:18:21;214068.00;0.71;370.14;76562.00;0.26;133.10;;;;;17.70;1.00;;;;;;2266215;61;1006;-79
2021/10/08 18:23:18;524974.00;1.75;904.83;79748.00;0.27;138.60;;;;;17.90;1.00;;;;;;2278036;61;1410;-82
2021/10/08 18:28:13;393636.00;1.31;678.86;85272.00;0.28;148.14;;;;;17.80;1.00;;;;;;2274382;61;1402;-84
2021/10/08 18:30:41;434265.00;1.45;748.72;77810.00;0.26;135.25;;;;;18.00;1.00;;;;;;2272070;61;1996;-81
2021/10/08 18:35:36;225678.00;0.75;390.11;76327.00;0.25;132.69;;;;;17.80;1.00;;;;;;2274259;60;1398;-81
2021/10/08 18:38:04;383094.00;1.28;660.74;73837.00;0.25;128.39;;;;;17.90;1.00;;;;;;2272683;60;909;-81
2021/10/08 18:43:00;321033.00;1.07;554.07;78024.00;0.26;135.62;;;;;17.80;1.00;;;;;;2278517;61;1409;-79
2021/10/08 18:45:27;503814.00;1.68;868.39;82265.00;0.27;142.95;;;;;17.80;1.00;;;;;;2267812;61;924;-82
2021/10/08 18:47:56;225331.00;0.75;389.52;69486.00;0.23;120.87;;;;;17.80;1.00;;;;;;2267939;61;973;-80
2021/10/08 18:50:25;434187.00;1.45;748.59;87317.00;0.29;151.67;;;;;17.80;1.00;;;;;;2268025;61;1320;-82
2021/10/08 18:52:52;551404.00;1.84;950.38;79467.00;0.26;138.12;;;;;17.70;1.00;;;;;;2258276;61;2021;-83
2021/10/08 18:55:20;296468.00;0.99;511.85;77334.00;0.26;134.43;;;;;17.70;1.00;;;;;;2268104;61;1017;-82
2021/10/08 18:57:48;353794.00;1.18;610.38;83823.00;0.28;145.64;;;;;17.90;1.00;;;;;;2261552;61;972;-80
2021/10/08 19:00:18;308655.00;1.03;532.80;91977.00;0.31;159.72;;;;;18.00;1.00;;;;;;2267808;61;1707;-80
2021/10/08 19:02:45;306854.00;1.02;529.70;82531.00;0.28;143.41;;;;;17.90;1.00;;;;;;2262164;61;933;-80
2021/10/08 19:05:12;238244.00;0.79;411.73;79872.00;0.27;138.82;;;;;17.80;1.00;;;;;;2272134;61;1021;-82
2021/10/08 19:07:42;496952.00;1.66;856.58;111200.00;0.37;192.90;;;;;17.70;1.00;;;;;;2271984;61;1481;-82
2021/10/08 19:10:12;464009.00;1.55;799.88;82846.00;0.28;143.95;;;;;17.50;1.00;;;;;;2272071;61;1435;-78
2021/10/08 19:12:41;639488.00;2.13;1102.45;83624.00;0.28;145.30;;;;;17.40;1.00;;;;;;2272124;61;1980;-82
2021/10/08 19:15:13;470087.00;1.57;810.34;83320.00;0.28;144.77;;;;;17.40;1.00;;;;;;2272101;61;1019;-82
2021/10/08 19:23:10;504643.00;1.68;869.82;75156.00;0.25;130.67;;;;;17.00;1.00;;;;;;2273985;61;1355;-82
2021/10/08 19:25:38;520792.00;1.74;897.63;78685.00;0.26;136.77;;;;;17.30;1.00;;;;;;2259661;61;1046;-82
2021/10/08 19:28:06;333426.00;1.11;575.37;82817.00;0.28;143.90;;;;;17.50;1.00;;;;;;2259605;61;1069;-82
2021/10/08 19:30:38;479224.00;1.60;826.06;46579.00;0.16;81.27;;;;;17.30;1.00;;;;;;2254767;61;1388;-85
2021/10/08 19:33:06;790819.00;2.64;1365.12;159162.00;0.53;275.60;;;;;17.10;1.00;;;;;;2257056;61;2015;-81
2021/10/08 19:35:33;311455.00;1.04;537.61;0.00;0.00;0.62;;;;;16.70;1.00;;;;;;2255214;61;979;-83
2021/10/08 19:38:00;335885.00;1.12;579.60;0.00;0.00;0.62;;;;;16.80;1.00;;;;;;2249293;61;1041;-83
2021/10/08 19:40:27;309199.00;1.03;533.73;0.00;0.00;0.62;;;;;17.20;1.00;;;;;;2255498;61;1337;-82
2021/10/08 19:43:03;360886.00;1.20;622.57;49652.00;0.17;86.58;;;;;17.60;1.00;;;;;;2256763;61;996;-83
2021/10/08 19:45:34;583060.00;1.94;1004.98;32867.00;0.11;57.55;;;;;17.70;1.00;;;;;;2255629;61;965;-83
2021/10/08 19:48:01;297422.00;0.99;513.49;0.00;0.00;0.62;;;;;17.50;1.00;;;;;;2255869;61;1566;-80
2021/10/08 19:50:30;215146.00;0.72;371.99;0.00;0.00;0.62;;;;;17.40;1.00;;;;;;2255990;61;1784;-82
2021/10/08 19:52:57;556979.00;1.86;959.99;0.00;0.00;0.62;;;;;17.50;1.00;;;;;;2250542;61;1934;-85
2021/10/08 19:55:24;359302.00;1.20;619.85;0.00;0.00;0.62;;;;;17.70;1.00;;;;;;2259749;61;1018;-82
2021/10/08 19:57:51;633497.00;2.11;1092.09;0.00;0.00;0.62;;;;;17.80;1.00;;;;;;2248547;61;941;-81
2021/10/08 20:00:18;509681.00;1.70;878.49;52278.00;0.17;91.13;;;;;18.00;1.00;;;;;;2245299;61;1335;-82